createdAt,value
2023-05-21T00:03:05.299Z,2.03
2023-05-21T00:08:07.990Z,2.22
2023-05-21T00:13:10.837Z,2.47
2023-05-21T00:18:13.278Z,2.40
2023-05-21T00:23:19.001Z,1.98
2023-05-21T00:28:21.399Z,2.25
2023-05-21T00:33:26.706Z,2.00
2023-05-21T00:38:29.314Z,2.42
2023-05-21T00:43:32.924Z,2.42
2023-05-21T00:48:35.752Z,2.25
2023-05-21T00:53:38.485Z,2.33
2023-05-21T00:58:41.716Z,2.17
2023-05-21T01:03:44.679Z,2.05
2023-05-21T01:08:47.380Z,2.40
2023-05-21T01:13:51.359Z,1.90
2023-05-21T01:18:54.251Z,2.45
2023-05-21T01:23:57.067Z,1.88
2023-05-21T01:28:59.788Z,2.15
2023-05-21T01:34:05.939Z,1.70
2023-05-21T01:39:24.341Z,2.00
2023-05-21T01:44:27.627Z,2.30
2023-05-21T01:49:30.804Z,1.98
2023-05-21T01:54:33.222Z,1.67
2023-05-21T01:59:36.958Z,2.30
2023-05-21T02:04:41.754Z,1.75
2023-05-21T02:09:44.512Z,2.65
2023-05-21T02:14:50.679Z,3.10
2023-05-21T02:19:53.293Z,2.45
2023-05-21T02:24:55.954Z,2.10
2023-05-21T02:29:58.448Z,3.10
2023-05-21T02:35:02.213Z,3.00
2023-05-21T02:40:08.273Z,3.30
2023-05-21T02:45:13.107Z,3.10
2023-05-21T02:50:17.950Z,2.70
2023-05-21T02:55:27.054Z,2.97
2023-05-21T03:00:29.461Z,3.28
2023-05-21T03:05:32.055Z,3.63
2023-05-21T03:10:34.521Z,3.03
2023-05-21T03:15:39.311Z,2.75
2023-05-21T03:20:44.684Z,1.75
2023-05-21T03:25:47.261Z,2.03
2023-05-21T03:30:51.345Z,1.65
2023-05-21T03:36:12.335Z,1.80
2023-05-21T03:41:15.055Z,1.67
2023-05-21T03:46:21.666Z,1.60
2023-05-21T03:51:46.275Z,1.63
2023-05-21T03:56:52.389Z,1.55
2023-05-21T04:01:55.898Z,1.40
2023-05-21T04:06:58.559Z,1.30
2023-05-21T04:12:01.242Z,1.00
2023-05-21T04:17:06.994Z,1.40
2023-05-21T04:22:11.112Z,1.10
2023-05-21T04:27:16.843Z,1.23
2023-05-21T04:32:20.717Z,1.58
2023-05-21T04:37:24.995Z,1.00
2023-05-21T04:42:27.925Z,1.15
2023-05-21T04:47:35.965Z,1.02
2023-05-21T04:52:40.689Z,1.50
2023-05-21T04:57:43.193Z,1.17
2023-05-21T05:02:45.854Z,1.30
2023-05-21T05:07:48.532Z,1.20
2023-05-21T05:12:51.711Z,1.02
2023-05-21T05:17:55.031Z,1.40
2023-05-21T05:22:57.466Z,1.05
2023-05-21T05:28:00.160Z,0.90
2023-05-21T05:33:02.582Z,0.80
2023-05-21T05:38:06.184Z,0.90
2023-05-21T05:43:08.864Z,0.95
2023-05-21T05:48:12.259Z,1.00
2023-05-21T05:53:15.028Z,1.00
2023-05-21T05:58:17.746Z,0.93
2023-05-21T06:03:31.904Z,1.02
2023-05-21T06:08:41.160Z,0.80
2023-05-21T06:13:43.752Z,0.77
2023-05-21T06:18:46.388Z,1.30
2023-05-21T06:23:49.087Z,1.27
2023-05-21T06:28:51.790Z,0.90
2023-05-21T06:33:54.774Z,1.02
2023-05-21T06:38:57.723Z,0.85
2023-05-21T06:44:00.911Z,1.00
2023-05-21T06:49:35.570Z,0.70
2023-05-21T06:54:38.624Z,0.90
2023-05-21T06:59:43.029Z,1.40
2023-05-21T07:04:45.685Z,1.10
2023-05-21T07:09:48.253Z,1.10
2023-05-21T07:14:50.868Z,1.20
2023-05-21T07:19:53.583Z,1.20
2023-05-21T07:24:56.056Z,1.30
2023-05-21T07:29:58.480Z,1.27
2023-05-21T07:35:04.621Z,1.50
2023-05-21T07:40:08.571Z,1.65
2023-05-21T07:45:12.079Z,1.20
2023-05-21T07:50:18.191Z,1.50
2023-05-21T07:55:20.903Z,1.60
2023-05-21T08:00:25.183Z,1.40
2023-05-21T08:05:32.909Z,1.20
2023-05-21T08:10:35.472Z,1.48
2023-05-21T08:15:38.134Z,1.35
2023-05-21T08:20:41.718Z,1.60
2023-05-21T08:25:44.755Z,1.90
2023-05-21T08:30:47.539Z,1.80
2023-05-21T08:35:51.885Z,1.65
2023-05-21T08:41:00.410Z,1.95
2023-05-21T08:46:05.340Z,1.45
2023-05-21T08:51:11.335Z,1.60
2023-05-21T08:56:21.572Z,1.30
2023-05-21T09:01:30.312Z,1.67
2023-05-21T09:06:41.492Z,1.33
2023-05-21T09:11:46.742Z,1.67
2023-05-21T09:16:49.499Z,1.38
2023-05-21T09:21:53.267Z,1.40
2023-05-21T09:26:59.483Z,1.42
2023-05-21T09:37:20.175Z,1.10
2023-05-21T09:42:30.357Z,1.60
2023-05-21T09:47:32.847Z,1.50
2023-05-21T09:52:38.085Z,1.50
2023-05-21T09:57:43.011Z,1.15
2023-05-21T10:02:47.857Z,1.50
2023-05-21T10:07:52.511Z,1.02
2023-05-21T10:13:18.565Z,1.45
2023-05-21T10:18:22.604Z,1.13
2023-05-21T10:23:25.335Z,1.10
2023-05-21T10:28:29.719Z,1.42
2023-05-21T10:33:33.886Z,1.10
2023-05-21T10:38:38.833Z,1.17
2023-05-21T10:44:08.758Z,1.02
2023-05-21T10:49:38.627Z,1.27
2023-05-21T10:54:50.324Z,1.10
2023-05-21T10:59:53.427Z,1.02
2023-05-21T11:05:02.633Z,1.15
2023-05-21T11:10:34.880Z,1.10
2023-05-21T11:15:59.036Z,1.17
2023-05-21T11:21:08.010Z,1.00
2023-05-21T11:26:10.465Z,0.90
2023-05-21T11:31:30.667Z,1.00
2023-05-21T11:36:36.159Z,0.80
2023-05-21T11:42:11.248Z,0.80
2023-05-21T11:47:15.508Z,1.73
2023-05-21T11:52:20.074Z,1.00
2023-05-21T11:57:23.774Z,0.98
2023-05-21T12:02:28.971Z,0.77
2023-05-21T12:07:32.574Z,1.00
2023-05-21T12:12:50.010Z,0.70
2023-05-21T12:17:57.333Z,1.05
2023-05-21T12:22:59.866Z,0.77
2023-05-21T12:28:03.769Z,0.73
2023-05-21T12:33:07.418Z,0.90
2023-05-21T12:38:10.327Z,0.80
2023-05-21T12:43:13.034Z,1.13
2023-05-21T12:48:15.574Z,0.65
2023-05-21T12:53:18.061Z,0.93
2023-05-21T12:58:22.762Z,0.90
2023-05-21T13:03:26.916Z,0.50
2023-05-21T13:08:29.981Z,0.68
2023-05-21T13:13:32.545Z,0.68
2023-05-21T13:18:34.994Z,0.80
2023-05-21T13:23:37.365Z,0.70
2023-05-21T13:28:42.545Z,0.40
2023-05-21T13:33:45.380Z,0.90
2023-05-21T13:38:47.890Z,0.60
2023-05-21T13:43:50.413Z,0.40
2023-05-21T13:48:53.003Z,0.50
2023-05-21T13:53:56.802Z,0.77
2023-05-21T13:58:59.879Z,0.50
2023-05-21T14:04:04.697Z,0.65
2023-05-21T14:09:07.880Z,0.98
2023-05-21T14:14:10.418Z,0.70
2023-05-21T14:19:12.977Z,0.70
2023-05-21T14:24:15.480Z,0.65
2023-05-21T14:29:17.924Z,1.00
2023-05-21T14:34:20.453Z,0.90
2023-05-21T14:39:22.923Z,1.13
2023-05-21T14:44:25.540Z,0.90
2023-05-21T14:49:28.062Z,0.70
2023-05-21T14:54:30.699Z,0.82
2023-05-21T14:59:33.141Z,0.70
2023-05-21T15:04:35.825Z,0.90
2023-05-21T15:09:38.278Z,0.88
2023-05-21T15:14:42.273Z,1.17
2023-05-21T15:19:44.850Z,1.23
2023-05-21T15:24:48.753Z,1.33
2023-05-21T15:29:51.921Z,1.00
2023-05-21T15:34:54.524Z,1.00
2023-05-21T15:39:56.980Z,1.08
2023-05-21T15:44:59.510Z,1.83
2023-05-21T15:50:02.004Z,1.33
2023-05-21T15:55:08.865Z,1.23
2023-05-21T16:00:12.185Z,1.05
2023-05-21T16:05:14.682Z,1.40
2023-05-21T16:10:17.420Z,1.65
2023-05-21T16:15:19.928Z,1.23
2023-05-21T16:20:22.408Z,1.25
2023-05-21T16:25:24.980Z,1.70
2023-05-21T16:30:27.446Z,2.05
2023-05-21T16:35:32.205Z,1.30
2023-05-21T16:40:34.760Z,1.40
2023-05-21T16:45:42.236Z,1.65
2023-05-21T16:50:46.451Z,1.50
2023-05-21T16:55:49.094Z,2.47
2023-05-21T17:00:51.605Z,1.70
2023-05-21T17:05:54.520Z,1.42
2023-05-21T17:10:57.188Z,1.73
2023-05-21T17:15:59.735Z,1.60
2023-05-21T17:21:02.254Z,1.23
2023-05-21T17:26:07.278Z,1.17
2023-05-21T17:31:10.388Z,1.80
2023-05-21T17:36:12.756Z,1.80
2023-05-21T17:41:16.711Z,4.22
2023-05-21T17:51:21.646Z,3.47
2023-05-21T17:56:24.810Z,2.63
2023-05-21T18:01:27.376Z,2.00
2023-05-21T18:06:30.467Z,1.23
2023-05-21T18:11:33.024Z,1.30
2023-05-21T18:16:35.593Z,1.40
2023-05-21T18:21:38.456Z,2.55
2023-05-21T18:26:40.993Z,3.97
2023-05-21T18:31:46.555Z,4.55
2023-05-21T18:36:49.762Z,3.63
2023-05-21T18:42:01.613Z,3.00
2023-05-21T18:47:14.224Z,2.95
2023-05-21T18:52:16.757Z,2.42
2023-05-21T18:57:19.473Z,1.50
2023-05-21T19:02:23.697Z,1.83
2023-05-21T19:07:26.347Z,2.03
2023-05-21T19:12:31.585Z,1.92
2023-05-21T19:17:35.397Z,1.50
2023-05-21T19:22:39.184Z,1.58
2023-05-21T19:27:41.678Z,2.08
2023-05-21T19:32:44.309Z,1.42
2023-05-21T19:37:47.158Z,1.50
2023-05-21T19:42:49.591Z,1.80
2023-05-21T19:47:52.066Z,3.28
2023-05-21T19:52:55.548Z,3.83
2023-05-21T19:57:58.046Z,4.22
2023-05-21T20:03:00.638Z,5.50
2023-05-21T20:08:04.142Z,5.75
2023-05-21T20:13:07.269Z,5.00
2023-05-21T20:18:10.469Z,4.35
2023-05-21T20:23:13.281Z,2.33
2023-05-21T20:28:16.203Z,2.70
2023-05-21T20:33:19.351Z,1.60
2023-05-21T20:38:21.768Z,1.60
2023-05-21T20:43:24.801Z,1.75
2023-05-21T20:48:32.220Z,2.05
2023-05-21T20:53:34.755Z,2.47
2023-05-21T20:58:37.184Z,2.28
2023-05-21T21:03:41.647Z,3.85
2023-05-21T21:08:50.368Z,4.53
2023-05-21T21:13:52.914Z,4.60
2023-05-21T21:18:55.563Z,6.10
2023-05-21T21:23:58.079Z,6.05
2023-05-21T21:29:00.945Z,5.10
2023-05-21T21:34:03.679Z,5.18
2023-05-21T21:39:06.277Z,4.88
2023-05-21T21:44:09.029Z,4.22
2023-05-21T21:49:11.444Z,4.68
2023-05-21T21:54:14.098Z,4.07
2023-05-21T21:59:16.552Z,3.50
2023-05-21T22:04:19.105Z,1.70
2023-05-21T22:09:22.847Z,1.20
2023-05-21T22:14:25.343Z,1.30
2023-05-21T22:19:28.480Z,1.58
2023-05-21T22:24:32.427Z,1.40
2023-05-21T22:29:35.774Z,1.60
2023-05-21T22:34:38.527Z,1.23
2023-05-21T22:39:40.983Z,1.88
2023-05-21T22:44:43.574Z,1.70
2023-05-21T22:49:46.414Z,1.73
2023-05-21T22:54:49.527Z,1.35
2023-05-21T22:59:51.952Z,1.70
2023-05-21T23:04:54.438Z,1.50
2023-05-21T23:09:56.972Z,1.52
2023-05-21T23:14:59.347Z,1.33
2023-05-21T23:20:01.924Z,1.52
2023-05-21T23:25:06.850Z,1.05
2023-05-21T23:30:09.694Z,1.75
2023-05-21T23:35:14.656Z,0.80
2023-05-21T23:40:21.152Z,0.80
2023-05-21T23:45:23.952Z,1.20
2023-05-21T23:50:26.623Z,1.00
2023-05-21T23:55:29.217Z,1.50
